createdAt,value
2022-10-05T00:00:24.793Z,11
2022-10-05T00:01:24.843Z,11.1
2022-10-05T00:02:24.763Z,11.1
2022-10-05T00:03:24.770Z,11.1
2022-10-05T00:04:24.779Z,11.1
2022-10-05T00:05:24.851Z,11.1
2022-10-05T00:06:24.764Z,11.1
2022-10-05T00:07:24.774Z,11.1
2022-10-05T00:09:24.800Z,11.2
2022-10-05T00:10:24.779Z,11.2
2022-10-05T00:11:24.775Z,11.2
2022-10-05T00:13:24.788Z,11.2
2022-10-05T00:14:24.772Z,11.2
2022-10-05T00:17:24.777Z,11.2
2022-10-05T00:18:24.784Z,11.2
2022-10-05T00:19:24.791Z,11.3
2022-10-05T00:20:24.783Z,11.2
2022-10-05T00:21:24.766Z,11.3
2022-10-05T00:22:24.837Z,11.3
2022-10-05T00:23:24.787Z,11.3
2022-10-05T00:24:24.790Z,11.3
2022-10-05T00:25:24.774Z,11.3
2022-10-05T00:26:24.766Z,11.3
2022-10-05T00:27:24.784Z,11.4
2022-10-05T00:28:24.856Z,11.3
2022-10-05T00:29:24.774Z,11.4
2022-10-05T00:30:24.771Z,11.4
2022-10-05T00:31:24.830Z,11.3
2022-10-05T00:32:24.791Z,11.4
2022-10-05T00:33:24.793Z,11.4
2022-10-05T00:34:24.769Z,11.4
2022-10-05T00:35:24.781Z,11.4
2022-10-05T00:36:24.783Z,11.4
2022-10-05T00:37:24.784Z,11.4
2022-10-05T00:38:24.798Z,11.4
2022-10-05T00:39:24.782Z,11.4
2022-10-05T00:40:24.949Z,11.5
2022-10-05T00:41:24.785Z,11.5
2022-10-05T00:42:24.779Z,11.5
2022-10-05T00:43:24.786Z,11.5
2022-10-05T00:44:24.807Z,11.5
2022-10-05T00:45:24.792Z,11.5
2022-10-05T00:46:24.796Z,11.6
2022-10-05T00:47:24.792Z,11.6
2022-10-05T00:48:24.779Z,11.6
2022-10-05T00:49:24.801Z,11.6
2022-10-05T00:50:24.799Z,11.6
2022-10-05T00:51:24.813Z,11.6
2022-10-05T00:52:24.793Z,11.6
2022-10-05T00:53:24.795Z,11.6
2022-10-05T00:54:24.788Z,11.7
2022-10-05T00:55:24.786Z,11.7
2022-10-05T00:56:24.787Z,11.7
2022-10-05T00:57:24.780Z,11.7
2022-10-05T00:58:24.791Z,11.7
2022-10-05T00:59:24.803Z,11.8
2022-10-05T01:00:24.808Z,11.8
2022-10-05T01:02:24.934Z,11.8
2022-10-05T01:03:24.793Z,11.8
2022-10-05T01:04:24.785Z,11.9
2022-10-05T01:05:24.795Z,11.9
2022-10-05T01:06:24.795Z,11.9
2022-10-05T01:07:24.804Z,11.8
2022-10-05T01:08:24.805Z,11.8
2022-10-05T01:09:24.789Z,11.8
2022-10-05T01:10:24.785Z,11.9
2022-10-05T01:11:24.823Z,11.9
2022-10-05T01:12:24.788Z,11.9
2022-10-05T01:13:24.798Z,11.9
2022-10-05T01:14:24.803Z,11.9
2022-10-05T01:15:24.807Z,11.9
2022-10-05T01:16:24.864Z,11.9
2022-10-05T01:17:24.804Z,11.9
2022-10-05T01:18:24.789Z,11.9
2022-10-05T01:19:24.811Z,11.9
2022-10-05T01:20:24.800Z,11.9
2022-10-05T01:21:24.802Z,12
2022-10-05T01:23:24.812Z,12
2022-10-05T01:25:24.796Z,12
2022-10-05T01:26:24.809Z,12
2022-10-05T01:27:24.802Z,12.1
2022-10-05T01:28:24.940Z,12.1
2022-10-05T01:29:24.797Z,12.1
2022-10-05T01:30:24.794Z,12.2
2022-10-05T01:31:24.896Z,12.2
2022-10-05T01:32:24.809Z,12.2
2022-10-05T01:34:24.797Z,12.2
2022-10-05T01:35:24.794Z,12.2
2022-10-05T01:36:24.832Z,12.2
2022-10-05T01:37:24.809Z,12.2
2022-10-05T01:38:24.814Z,12.3
2022-10-05T01:39:24.809Z,12.3
2022-10-05T01:40:24.803Z,12.3
2022-10-05T01:41:24.797Z,12.3
2022-10-05T01:42:24.881Z,12.3
2022-10-05T01:43:24.808Z,12.4
2022-10-05T01:44:25.586Z,12.4
2022-10-05T01:45:24.801Z,12.4
2022-10-05T01:46:24.800Z,12.4
2022-10-05T01:47:24.810Z,12.4
2022-10-05T01:48:24.800Z,12.4
2022-10-05T01:49:24.802Z,12.4
2022-10-05T01:50:24.807Z,12.4
2022-10-05T01:51:24.805Z,12.5
2022-10-05T01:52:24.801Z,12.5
2022-10-05T01:53:24.804Z,12.5
2022-10-05T01:54:24.802Z,12.5
2022-10-05T01:55:24.797Z,12.5
2022-10-05T01:56:24.811Z,12.6
2022-10-05T01:57:24.808Z,12.6
2022-10-05T01:58:24.831Z,12.6
2022-10-05T01:59:24.809Z,12.6
2022-10-05T02:00:24.822Z,12.6
2022-10-05T02:01:24.941Z,12.6
2022-10-05T02:02:24.935Z,12.6
2022-10-05T02:03:24.910Z,12.6
2022-10-05T02:04:49.682Z,12.6
2022-10-05T02:05:24.814Z,12.6
2022-10-05T02:07:24.807Z,12.6
2022-10-05T02:08:24.852Z,12.6
2022-10-05T02:09:24.823Z,12.6
2022-10-05T02:10:24.822Z,12.6
2022-10-05T02:11:24.816Z,12.6
2022-10-05T02:12:24.812Z,12.6
2022-10-05T02:13:24.850Z,12.6
2022-10-05T02:14:24.811Z,12.6
2022-10-05T02:16:24.913Z,12.6
2022-10-05T02:17:24.813Z,12.6
2022-10-05T02:18:24.819Z,12.6
2022-10-05T02:19:24.815Z,12.6
2022-10-05T02:20:24.873Z,12.7
2022-10-05T02:21:24.824Z,12.6
2022-10-05T02:22:24.819Z,12.6
2022-10-05T02:23:24.816Z,12.7
2022-10-05T02:24:24.812Z,12.6
2022-10-05T02:26:24.816Z,12.6
2022-10-05T02:28:24.907Z,12.6
2022-10-05T02:29:24.829Z,12.7
2022-10-05T02:30:24.813Z,12.7
2022-10-05T02:31:24.877Z,12.7
2022-10-05T02:32:24.814Z,12.7
2022-10-05T02:33:24.824Z,12.7
2022-10-05T02:34:24.826Z,12.7
2022-10-05T02:35:24.825Z,12.7
2022-10-05T02:36:24.816Z,12.7
2022-10-05T02:37:24.822Z,12.7
2022-10-05T02:38:24.832Z,12.7
2022-10-05T02:39:24.832Z,12.7
2022-10-05T02:40:24.846Z,12.7
2022-10-05T02:41:24.832Z,12.7
2022-10-05T02:42:24.840Z,12.8
2022-10-05T02:43:24.838Z,12.8
2022-10-05T02:44:24.843Z,12.8
2022-10-05T02:45:24.826Z,12.7
2022-10-05T02:47:24.829Z,12.8
2022-10-05T02:48:24.827Z,12.8
2022-10-05T02:49:24.825Z,12.8
2022-10-05T02:50:24.825Z,12.8
2022-10-05T02:51:24.821Z,12.8
2022-10-05T02:52:24.828Z,12.8
2022-10-05T02:53:24.834Z,12.8
2022-10-05T02:55:24.838Z,12.8
2022-10-05T02:56:24.842Z,12.8
2022-10-05T02:57:24.828Z,12.8
2022-10-05T02:58:24.852Z,12.7
2022-10-05T02:59:24.830Z,12.7
2022-10-05T03:00:24.844Z,12.8
2022-10-05T03:01:24.961Z,12.7
2022-10-05T03:02:24.894Z,12.8
2022-10-05T03:03:24.837Z,12.8
2022-10-05T03:04:24.819Z,12.7
2022-10-05T03:05:24.821Z,12.7
2022-10-05T03:06:24.829Z,12.8
2022-10-05T03:08:24.836Z,12.8
2022-10-05T03:09:24.835Z,12.8
2022-10-05T03:10:24.837Z,12.7
2022-10-05T03:11:24.865Z,12.8
2022-10-05T03:12:24.853Z,12.8
2022-10-05T03:13:24.837Z,12.8
2022-10-05T03:14:24.841Z,12.8
2022-10-05T03:15:24.876Z,12.8
2022-10-05T03:16:24.861Z,12.8
2022-10-05T03:18:28.628Z,12.8
2022-10-05T03:19:24.849Z,12.8
2022-10-05T03:20:24.846Z,12.8
2022-10-05T03:21:24.857Z,12.8
2022-10-05T03:22:24.850Z,12.8
2022-10-05T03:23:24.847Z,12.8
2022-10-05T03:24:24.831Z,12.8
2022-10-05T03:25:24.838Z,12.7
2022-10-05T03:26:24.845Z,12.7
2022-10-05T03:27:24.832Z,12.8
2022-10-05T03:29:24.834Z,12.8
2022-10-05T03:30:24.840Z,12.8
2022-10-05T03:31:24.911Z,12.8
2022-10-05T03:32:24.831Z,12.9
2022-10-05T03:33:24.852Z,12.9
2022-10-05T03:34:24.854Z,12.9
2022-10-05T03:35:24.854Z,12.9
2022-10-05T03:36:24.857Z,12.9
2022-10-05T03:37:24.860Z,12.9
2022-10-05T03:38:24.865Z,12.9
2022-10-05T03:39:24.852Z,12.9
2022-10-05T03:40:24.892Z,13
2022-10-05T03:41:24.840Z,13
2022-10-05T03:42:24.839Z,12.9
2022-10-05T03:43:24.841Z,12.9
2022-10-05T03:44:24.861Z,12.9
2022-10-05T03:45:24.855Z,13
2022-10-05T03:46:25.131Z,13
2022-10-05T03:47:24.844Z,13
2022-10-05T03:48:24.869Z,13
2022-10-05T03:49:24.873Z,13
2022-10-05T03:51:24.852Z,13
2022-10-05T03:52:24.882Z,13
2022-10-05T03:53:24.869Z,13
2022-10-05T03:54:24.862Z,13.1
2022-10-05T03:55:24.864Z,13.1
2022-10-05T03:56:24.865Z,13.1
2022-10-05T03:57:24.859Z,13.1
2022-10-05T03:58:24.863Z,13.1
2022-10-05T03:59:28.827Z,13.1
2022-10-05T04:01:24.943Z,13.1
2022-10-05T04:02:24.991Z,13.1
2022-10-05T04:03:24.854Z,13.1
2022-10-05T04:04:24.884Z,13.1
2022-10-05T04:05:24.843Z,13.1
2022-10-05T04:06:24.840Z,13.1
2022-10-05T04:07:24.842Z,13.1
2022-10-05T04:08:24.852Z,13.1
2022-10-05T04:09:24.851Z,13.1
2022-10-05T04:10:24.850Z,13.1
2022-10-05T04:12:24.861Z,13.1
2022-10-05T04:13:24.900Z,13.1
2022-10-05T04:14:24.867Z,13.1
2022-10-05T04:16:24.911Z,13.1
2022-10-05T04:17:24.883Z,13.1
2022-10-05T04:18:24.859Z,13.1
2022-10-05T04:19:24.859Z,13.1
2022-10-05T04:20:24.858Z,13
2022-10-05T04:22:24.855Z,13.1
2022-10-05T04:23:24.860Z,13.1
2022-10-05T04:24:24.857Z,13.1
2022-10-05T04:25:24.872Z,13.1
2022-10-05T04:26:24.880Z,13.1
2022-10-05T04:27:24.863Z,13.2
2022-10-05T04:28:28.318Z,13.1
2022-10-05T04:29:24.868Z,13.1
2022-10-05T04:30:24.902Z,13.2
2022-10-05T04:31:24.918Z,13.2
2022-10-05T04:32:24.878Z,13.1
2022-10-05T04:33:24.874Z,13.2
2022-10-05T04:34:24.928Z,13.2
2022-10-05T04:35:24.868Z,13.2
2022-10-05T04:36:24.866Z,13.2
2022-10-05T04:37:24.875Z,13.2
2022-10-05T04:38:24.867Z,13.2
2022-10-05T04:39:24.881Z,13.2
2022-10-05T04:40:24.862Z,13.2
2022-10-05T04:41:24.877Z,13.2
2022-10-05T04:42:24.873Z,13.2
2022-10-05T04:43:24.895Z,13.2
2022-10-05T04:44:24.869Z,13.2
2022-10-05T04:45:24.900Z,13.2
2022-10-05T04:46:24.989Z,13.2
2022-10-05T04:47:24.871Z,13.2
2022-10-05T04:49:24.881Z,13.3
2022-10-05T04:50:24.872Z,13.3
2022-10-05T04:51:24.883Z,13.3
2022-10-05T04:52:24.879Z,13.3
2022-10-05T04:53:24.874Z,13.2
2022-10-05T04:54:24.875Z,13.2
2022-10-05T04:55:24.874Z,13.3
2022-10-05T04:56:24.886Z,13.3
2022-10-05T04:58:24.874Z,13.2
2022-10-05T04:59:24.882Z,13.3
2022-10-05T05:00:24.879Z,13.3
2022-10-05T05:01:24.956Z,13.3
2022-10-05T05:02:24.881Z,13.3
2022-10-05T05:04:24.884Z,13.3
2022-10-05T05:05:24.877Z,13.3
2022-10-05T05:06:24.876Z,13.3
2022-10-05T05:07:24.875Z,13.3
2022-10-05T05:08:24.882Z,13.3
2022-10-05T05:09:24.884Z,13.3
2022-10-05T05:10:24.896Z,13.3
2022-10-05T05:11:24.883Z,13.3
2022-10-05T05:12:24.878Z,13.3
2022-10-05T05:13:24.882Z,13.3
2022-10-05T05:14:24.887Z,13.3
2022-10-05T05:15:24.880Z,13.3
2022-10-05T05:16:24.942Z,13.4
2022-10-05T05:17:24.884Z,13.4
2022-10-05T05:18:24.881Z,13.4
2022-10-05T05:19:24.917Z,13.4
2022-10-05T05:20:24.894Z,13.4
2022-10-05T05:21:24.886Z,13.4
2022-10-05T05:22:24.901Z,13.4
2022-10-05T05:23:24.897Z,13.4
2022-10-05T05:25:24.896Z,13.4
2022-10-05T05:26:24.897Z,13.4
2022-10-05T05:27:24.882Z,13.4
2022-10-05T05:28:25.006Z,13.4
2022-10-05T05:29:24.892Z,13.4
2022-10-05T05:30:24.906Z,13.4
2022-10-05T05:31:24.955Z,13.4
2022-10-05T05:32:24.894Z,13.4
2022-10-05T05:33:24.894Z,13.5
2022-10-05T05:34:24.908Z,13.4
2022-10-05T05:35:24.898Z,13.4
2022-10-05T05:37:24.902Z,13.4
2022-10-05T05:38:24.905Z,13.5
2022-10-05T05:39:24.886Z,13.4
2022-10-05T05:40:24.885Z,13.4
2022-10-05T05:41:24.878Z,13.4
2022-10-05T05:42:24.896Z,13.5
2022-10-05T05:43:24.897Z,13.4
2022-10-05T05:44:24.924Z,13.4
2022-10-05T05:45:24.930Z,13.4
2022-10-05T05:46:44.680Z,13.8
2022-10-05T05:47:24.964Z,14.1
2022-10-05T05:48:24.895Z,14.5
2022-10-05T05:49:24.902Z,14.8
2022-10-05T05:50:24.917Z,14.9
2022-10-05T05:51:24.897Z,14.9
2022-10-05T05:52:24.897Z,14.8
2022-10-05T05:53:24.900Z,14.7
2022-10-05T05:54:24.893Z,14.7
2022-10-05T05:55:29.702Z,14.6
2022-10-05T05:56:24.897Z,14.5
2022-10-05T05:58:24.905Z,14.4
2022-10-05T05:59:24.895Z,14.3
2022-10-05T06:00:24.913Z,14.3
2022-10-05T06:01:33.393Z,14.3
2022-10-05T06:02:25.082Z,14.3
2022-10-05T06:03:25.083Z,14.2
2022-10-05T06:04:24.904Z,14.2
2022-10-05T06:05:24.890Z,14.2
2022-10-05T06:06:24.904Z,14.2
2022-10-05T06:07:30.177Z,14.2
2022-10-05T06:08:24.910Z,14.2
2022-10-05T06:09:24.902Z,14.2
2022-10-05T06:10:24.900Z,14.2
2022-10-05T06:11:24.916Z,14.1
2022-10-05T06:12:24.914Z,14.2
2022-10-05T06:13:24.904Z,14.1
2022-10-05T06:14:24.902Z,14.1
2022-10-05T06:15:24.909Z,14.2
2022-10-05T06:16:25.001Z,14.1
2022-10-05T06:18:24.910Z,14.2
2022-10-05T06:19:24.901Z,14.2
2022-10-05T06:20:24.912Z,14.2
2022-10-05T06:21:24.938Z,14.2
2022-10-05T06:22:24.918Z,14.2
2022-10-05T06:23:24.913Z,14.2
2022-10-05T06:24:24.909Z,14.2
2022-10-05T06:25:24.916Z,14.3
2022-10-05T06:26:24.909Z,14.3
2022-10-05T06:27:24.958Z,14.2
2022-10-05T06:28:25.015Z,14.3
2022-10-05T06:29:24.901Z,14.2
2022-10-05T06:30:24.910Z,14.3
2022-10-05T06:31:24.981Z,14.3
2022-10-05T06:32:24.915Z,14.3
2022-10-05T06:33:24.901Z,14.3
2022-10-05T06:34:24.918Z,14.3
2022-10-05T06:35:24.914Z,14.3
2022-10-05T06:36:24.912Z,14.3
2022-10-05T06:37:24.906Z,14.3
2022-10-05T06:39:24.917Z,14.5
2022-10-05T06:40:24.923Z,14.5
2022-10-05T06:41:24.933Z,14.4
2022-10-05T06:42:24.931Z,14.4
2022-10-05T06:43:24.919Z,14.4
2022-10-05T06:44:24.918Z,14.4
2022-10-05T06:45:24.937Z,14.4
2022-10-05T06:46:24.910Z,14.4
2022-10-05T06:47:24.912Z,14.4
2022-10-05T06:48:24.916Z,14.4
2022-10-05T06:50:24.908Z,14.5
2022-10-05T06:51:24.932Z,14.5
2022-10-05T06:52:24.955Z,14.5
2022-10-05T06:53:24.923Z,14.5
2022-10-05T06:54:24.916Z,14.6
2022-10-05T06:55:24.922Z,14.5
2022-10-05T06:56:24.921Z,14.6
2022-10-05T06:58:24.920Z,14.7
2022-10-05T07:00:25.114Z,14.8
2022-10-05T07:01:25.027Z,14.8
2022-10-05T07:02:25.036Z,14.9
2022-10-05T07:03:24.916Z,14.9
2022-10-05T07:04:24.928Z,14.9
2022-10-05T07:05:24.932Z,14.9
2022-10-05T07:06:24.945Z,14.9
2022-10-05T07:07:24.927Z,14.9
2022-10-05T07:08:24.919Z,15
2022-10-05T07:09:24.953Z,15
2022-10-05T07:10:25.024Z,14.9
2022-10-05T07:11:24.915Z,14.9
2022-10-05T07:12:24.911Z,14.9
2022-10-05T07:13:24.935Z,14.9
2022-10-05T07:15:24.944Z,15
2022-10-05T07:16:24.981Z,15
2022-10-05T07:17:24.937Z,14.9
2022-10-05T07:18:24.946Z,14.9
2022-10-05T07:19:24.939Z,14.9
2022-10-05T07:21:24.938Z,14.9
2022-10-05T07:22:24.944Z,14.8
2022-10-05T07:23:24.977Z,14.8
2022-10-05T07:24:24.934Z,14.8
2022-10-05T07:25:24.934Z,14.8
2022-10-05T07:26:24.944Z,14.8
2022-10-05T07:27:24.923Z,14.8
2022-10-05T07:28:24.988Z,14.7
2022-10-05T07:29:24.937Z,14.7
2022-10-05T07:30:24.947Z,14.7
2022-10-05T07:31:24.973Z,14.7
2022-10-05T07:32:24.928Z,14.7
2022-10-05T07:33:24.936Z,14.7
2022-10-05T07:34:24.946Z,14.7
2022-10-05T07:36:24.941Z,14.7
2022-10-05T07:37:24.947Z,14.7
2022-10-05T07:38:24.952Z,14.7
2022-10-05T07:40:24.946Z,14.8
2022-10-05T07:42:24.962Z,14.8
2022-10-05T07:43:24.950Z,14.8
2022-10-05T07:44:24.948Z,14.8
2022-10-05T07:45:25.012Z,14.8
2022-10-05T07:46:25.028Z,14.7
2022-10-05T07:47:24.950Z,14.7
2022-10-05T07:48:24.957Z,14.8
2022-10-05T07:49:24.940Z,14.8
2022-10-05T07:50:24.938Z,14.7
2022-10-05T07:51:24.937Z,14.7
2022-10-05T07:52:24.942Z,14.8
2022-10-05T07:53:24.932Z,14.7
2022-10-05T07:54:24.995Z,14.8
2022-10-05T07:55:24.943Z,14.7
2022-10-05T07:57:24.940Z,14.8
2022-10-05T07:58:24.949Z,14.7
2022-10-05T07:59:24.955Z,14.8
2022-10-05T08:01:24.970Z,14.8
2022-10-05T08:02:25.162Z,14.8
2022-10-05T08:03:24.938Z,14.9
2022-10-05T08:04:24.951Z,14.9
2022-10-05T08:05:24.960Z,14.9
2022-10-05T08:06:24.945Z,15
2022-10-05T08:07:24.972Z,15.2
2022-10-05T08:08:24.947Z,15.5
2022-10-05T08:09:24.947Z,15.7
2022-10-05T08:10:24.963Z,15.9
2022-10-05T08:11:24.942Z,16
2022-10-05T08:12:24.935Z,16.1
2022-10-05T08:13:24.939Z,16.2
2022-10-05T08:14:24.945Z,16.3
2022-10-05T08:15:24.942Z,16.4
2022-10-05T08:16:24.989Z,16.5
2022-10-05T08:17:25.699Z,16.6
2022-10-05T08:18:24.990Z,16.7
2022-10-05T08:19:24.956Z,16.7
2022-10-05T08:20:24.950Z,16.7
2022-10-05T08:22:24.954Z,16.8
2022-10-05T08:23:24.960Z,16.8
2022-10-05T08:24:24.961Z,16.9
2022-10-05T08:25:24.974Z,16.6
2022-10-05T08:26:24.950Z,16.4
2022-10-05T08:27:24.970Z,16.1
2022-10-05T08:28:25.023Z,16.1
2022-10-05T08:29:24.953Z,16
2022-10-05T08:30:24.948Z,16
2022-10-05T08:31:25.113Z,15.8
2022-10-05T08:32:24.965Z,15.8
2022-10-05T08:33:24.960Z,15.8
2022-10-05T08:34:24.963Z,15.7
2022-10-05T08:35:24.955Z,15.7
2022-10-05T08:36:24.967Z,15.7
2022-10-05T08:37:24.987Z,15.7
2022-10-05T08:38:24.960Z,15.7
2022-10-05T08:39:24.960Z,15.7
2022-10-05T08:40:24.956Z,15.7
2022-10-05T08:41:24.961Z,15.7
2022-10-05T08:43:24.963Z,15.6
2022-10-05T08:44:24.970Z,15.6
2022-10-05T08:45:24.956Z,15.6
2022-10-05T08:46:25.063Z,15.6
2022-10-05T08:47:24.971Z,15.6
2022-10-05T08:48:24.983Z,15.6
2022-10-05T08:49:24.969Z,15.6
2022-10-05T08:50:24.976Z,15.6
2022-10-05T08:51:24.973Z,15.6
2022-10-05T08:52:24.984Z,15.7
2022-10-05T08:54:24.976Z,15.7
2022-10-05T08:55:24.971Z,15.7
2022-10-05T08:56:28.614Z,15.7
2022-10-05T08:57:24.963Z,15.7
2022-10-05T08:58:24.960Z,15.7
2022-10-05T08:59:24.981Z,15.7
2022-10-05T09:01:24.994Z,15.8
2022-10-05T09:02:25.022Z,15.7
2022-10-05T09:03:24.966Z,15.7
2022-10-05T09:04:24.970Z,15.7
2022-10-05T09:05:24.967Z,15.7
2022-10-05T09:06:24.967Z,15.7
2022-10-05T09:07:24.977Z,15.8
2022-10-05T09:08:24.985Z,15.8
2022-10-05T09:09:24.974Z,15.8
2022-10-05T09:10:24.973Z,15.9
2022-10-05T09:11:24.971Z,15.9
2022-10-05T09:12:24.978Z,15.8
2022-10-05T09:13:24.972Z,15.9
2022-10-05T09:15:26.435Z,15.9
2022-10-05T09:16:25.063Z,15.9
2022-10-05T09:17:24.979Z,15.9
2022-10-05T09:18:24.982Z,16
2022-10-05T09:19:24.977Z,16
2022-10-05T09:20:24.984Z,15.9
2022-10-05T09:21:24.986Z,16
2022-10-05T09:22:24.982Z,16
2022-10-05T09:23:24.983Z,16
2022-10-05T09:25:24.977Z,16
2022-10-05T09:26:24.976Z,16
2022-10-05T09:27:25.051Z,16
2022-10-05T09:28:25.090Z,16.1
2022-10-05T09:29:25.372Z,16
2022-10-05T09:30:24.979Z,16
2022-10-05T09:31:25.098Z,16.1
2022-10-05T09:32:24.999Z,16.1
2022-10-05T09:33:24.991Z,16.1
2022-10-05T09:34:24.979Z,16.1
2022-10-05T09:35:24.979Z,16.2
2022-10-05T09:36:25.012Z,16.2
2022-10-05T09:39:24.986Z,16.3
2022-10-05T09:40:24.986Z,16.3
2022-10-05T09:41:24.981Z,16.3
2022-10-05T09:42:24.985Z,16.3
2022-10-05T09:43:24.979Z,16.3
2022-10-05T09:44:24.995Z,16.3
2022-10-05T09:45:24.996Z,16.3
2022-10-05T09:46:25.052Z,16.3
2022-10-05T09:47:24.982Z,16.3
2022-10-05T09:48:24.998Z,16.4
2022-10-05T09:49:24.992Z,16.4
2022-10-05T09:50:24.993Z,16.4
2022-10-05T09:51:24.999Z,16.4
2022-10-05T09:52:24.993Z,16.5
2022-10-05T09:53:25.005Z,16.4
2022-10-05T09:54:24.998Z,16.5
2022-10-05T09:55:24.991Z,16.6
2022-10-05T09:57:24.990Z,16.6
2022-10-05T09:58:25.029Z,16.6
2022-10-05T09:59:24.986Z,16.5
2022-10-05T10:00:24.996Z,16.6
2022-10-05T10:01:34.111Z,16.6
2022-10-05T10:02:25.082Z,16.7
2022-10-05T10:03:25.077Z,16.6
2022-10-05T10:04:24.995Z,16.6
2022-10-05T10:05:24.998Z,16.6
2022-10-05T10:06:24.993Z,16.6
2022-10-05T10:07:24.998Z,16.6
2022-10-05T10:08:24.995Z,16.7
2022-10-05T10:09:25.003Z,16.7
2022-10-05T10:10:24.991Z,16.7
2022-10-05T10:11:24.997Z,16.7
2022-10-05T10:12:24.995Z,16.7
2022-10-05T10:13:24.996Z,16.6
2022-10-05T10:14:25.011Z,16.7
2022-10-05T10:15:25.006Z,16.7
2022-10-05T10:16:25.128Z,16.8
2022-10-05T10:18:25.006Z,16.7
2022-10-05T10:19:25.004Z,16.7
2022-10-05T10:21:25.022Z,16.7
2022-10-05T10:22:24.997Z,16.7
2022-10-05T10:23:25.011Z,16.7
2022-10-05T10:24:25.004Z,16.7
2022-10-05T10:25:24.992Z,16.8
2022-10-05T10:26:25.003Z,16.7
2022-10-05T10:27:25.006Z,16.7
2022-10-05T10:28:25.049Z,16.8
2022-10-05T10:29:25.029Z,16.8
2022-10-05T10:30:27.429Z,16.7
2022-10-05T10:31:25.134Z,16.7
2022-10-05T10:32:24.996Z,16.7
2022-10-05T10:33:25.010Z,16.8
2022-10-05T10:34:25.001Z,16.8
2022-10-05T10:35:25.059Z,16.8
2022-10-05T10:36:25.004Z,16.8
2022-10-05T10:37:25.001Z,16.8
2022-10-05T10:39:25.010Z,16.9
2022-10-05T10:40:25.007Z,16.9
2022-10-05T10:41:25.005Z,16.9
2022-10-05T10:42:26.196Z,16.9
2022-10-05T10:43:25.033Z,16.9
2022-10-05T10:44:25.012Z,16.9
2022-10-05T10:45:25.010Z,16.9
2022-10-05T10:46:25.068Z,17
2022-10-05T10:47:25.019Z,17
2022-10-05T10:48:25.020Z,17
2022-10-05T10:49:25.000Z,17
2022-10-05T10:50:25.006Z,17
2022-10-05T10:51:25.010Z,17
2022-10-05T10:52:25.025Z,17.1
2022-10-05T10:53:25.016Z,17.1
2022-10-05T10:54:25.020Z,17.1
2022-10-05T10:55:25.031Z,17.1
2022-10-05T10:56:25.027Z,17.1
2022-10-05T10:58:25.063Z,17.2
2022-10-05T10:59:27.849Z,17.2
2022-10-05T11:00:25.043Z,17.2
2022-10-05T11:01:25.082Z,17.2
2022-10-05T11:02:25.098Z,17.3
2022-10-05T11:03:25.016Z,17.2
2022-10-05T11:04:25.034Z,17.3
2022-10-05T11:05:25.013Z,17.3
2022-10-05T11:07:25.035Z,17.3
2022-10-05T11:09:25.014Z,17.3
2022-10-05T11:10:25.027Z,17.3
2022-10-05T11:11:25.017Z,17.3
2022-10-05T11:12:25.021Z,17.4
2022-10-05T11:13:25.012Z,17.4
2022-10-05T11:14:25.029Z,17.4
2022-10-05T11:15:25.032Z,17.5
2022-10-05T11:16:25.048Z,17.5
2022-10-05T11:17:25.032Z,17.6
2022-10-05T11:19:35.059Z,17.7
2022-10-05T11:20:25.033Z,17.7
2022-10-05T11:21:25.034Z,17.7
2022-10-05T11:22:25.040Z,17.8
2022-10-05T11:23:25.018Z,17.8
2022-10-05T11:24:25.022Z,17.9
2022-10-05T11:25:25.025Z,17.9
2022-10-05T11:26:25.019Z,17.9
2022-10-05T11:28:25.137Z,18
2022-10-05T11:29:25.043Z,18.1
2022-10-05T11:30:25.030Z,18.2
2022-10-05T11:32:25.053Z,18.3
2022-10-05T11:33:25.040Z,18.3
2022-10-05T11:34:25.031Z,18.3
2022-10-05T11:35:25.021Z,18.4
2022-10-05T11:36:25.458Z,18.4
2022-10-05T11:37:25.035Z,18.4
2022-10-05T11:38:25.038Z,18.4
2022-10-05T11:39:25.048Z,18.4
2022-10-05T11:40:25.048Z,18.4
2022-10-05T11:41:25.031Z,18.4
2022-10-05T11:42:25.033Z,18.4
2022-10-05T11:43:25.044Z,18.4
2022-10-05T11:44:25.030Z,18.4
2022-10-05T11:45:25.088Z,18.4
2022-10-05T11:46:25.111Z,18.4
2022-10-05T11:47:25.047Z,18.4
2022-10-05T11:49:25.043Z,18.4
2022-10-05T11:51:28.558Z,18.4
2022-10-05T11:52:25.040Z,18.4
2022-10-05T11:53:25.050Z,18.4
2022-10-05T11:54:25.057Z,18.4
2022-10-05T11:55:25.041Z,18.4
2022-10-05T11:56:25.087Z,18.4
2022-10-05T11:57:25.046Z,18.4
2022-10-05T11:58:25.046Z,18.5
2022-10-05T11:59:25.048Z,18.4
2022-10-05T12:00:25.054Z,18.5
2022-10-05T12:01:25.060Z,18.5
2022-10-05T12:03:25.577Z,18.6
2022-10-05T12:04:25.051Z,18.6
2022-10-05T12:05:25.052Z,18.6
2022-10-05T12:06:25.047Z,18.6
2022-10-05T12:07:25.043Z,18.6
2022-10-05T12:08:25.042Z,18.7
2022-10-05T12:12:23.358Z,18.8
2022-10-05T12:16:23.409Z,18.8
2022-10-05T12:30:23.531Z,18.6
2022-10-05T12:36:24.694Z,18.6
2022-10-05T12:37:23.556Z,18.6
2022-10-05T12:43:23.251Z,18.6
2022-10-05T12:44:23.403Z,18.6
2022-10-05T12:47:23.376Z,18.6
2022-10-05T12:55:23.512Z,18.7
2022-10-05T13:00:23.668Z,18.6
2022-10-05T13:03:23.446Z,18.7
2022-10-05T13:04:23.317Z,18.6
2022-10-05T13:06:23.253Z,18.7
2022-10-05T13:11:23.477Z,18.7
2022-10-05T13:12:23.456Z,18.8
2022-10-05T13:13:23.641Z,18.8
2022-10-05T13:18:23.270Z,18.8
2022-10-05T13:24:23.249Z,18.9
2022-10-05T13:27:23.315Z,18.9
2022-10-05T13:37:23.301Z,19
2022-10-05T13:41:23.448Z,19.1
2022-10-05T13:44:23.452Z,19.1
2022-10-05T13:46:23.477Z,19.1
2022-10-05T13:48:23.521Z,19.2
2022-10-05T13:49:23.352Z,19.2
2022-10-05T13:57:23.383Z,19.3
2022-10-05T14:04:23.562Z,19.5
2022-10-05T14:06:23.463Z,19.5
2022-10-05T14:07:23.322Z,19.5
2022-10-05T14:09:23.332Z,19.5
2022-10-05T14:14:23.414Z,19.4
2022-10-05T14:23:23.450Z,19.5
2022-10-05T14:34:23.345Z,19.6
2022-10-05T14:40:23.425Z,19.6
2022-10-05T14:56:23.292Z,19.6
2022-10-05T15:02:23.470Z,19.7
2022-10-05T15:05:23.282Z,19.6
2022-10-05T15:08:23.285Z,19.7
2022-10-05T15:09:23.222Z,19.7
2022-10-05T15:22:23.492Z,19.6
2022-10-05T15:23:23.486Z,19.5
2022-10-05T15:24:23.241Z,19.5
2022-10-05T15:25:23.398Z,19.6
2022-10-05T15:28:23.601Z,19.6
2022-10-05T15:30:23.251Z,19.6
2022-10-05T15:32:23.467Z,19.6
2022-10-05T15:34:23.284Z,19.6
2022-10-05T15:38:25.466Z,19.7
2022-10-05T15:45:23.527Z,19.7
2022-10-05T15:46:23.622Z,19.7
2022-10-05T15:48:23.845Z,19.6
2022-10-05T15:49:24.043Z,19.6
2022-10-05T15:51:23.509Z,19.6
2022-10-05T15:55:23.230Z,19.6
2022-10-05T16:00:23.516Z,19.6
2022-10-05T16:01:23.478Z,19.6
2022-10-05T16:04:23.400Z,19.6
2022-10-05T16:06:23.698Z,19.6
2022-10-05T16:11:23.474Z,19.6
2022-10-05T16:12:23.265Z,19.6
2022-10-05T16:16:23.451Z,19.6
2022-10-05T16:17:23.398Z,19.6
2022-10-05T16:18:23.726Z,19.6
2022-10-05T16:23:23.295Z,19.5
2022-10-05T16:24:23.545Z,19.5
2022-10-05T16:35:23.530Z,19.3
2022-10-05T16:36:23.224Z,19.3
2022-10-05T16:39:23.265Z,19.3
2022-10-05T16:40:23.442Z,19.2
2022-10-05T16:43:23.529Z,19.2
2022-10-05T16:44:23.633Z,19.2
2022-10-05T16:47:27.263Z,19.1
2022-10-05T16:53:23.225Z,19
2022-10-05T16:55:23.256Z,19
2022-10-05T16:56:23.410Z,19
2022-10-05T17:00:23.426Z,18.9
2022-10-05T17:08:23.577Z,18.6
2022-10-05T17:10:23.306Z,18.6
2022-10-05T17:13:23.706Z,18.4
2022-10-05T17:15:23.445Z,18.4
2022-10-05T17:21:23.399Z,18.2
2022-10-05T17:24:23.462Z,18.2
2022-10-05T17:31:23.542Z,18.2
2022-10-05T17:33:23.290Z,18.2
2022-10-05T17:36:23.431Z,18.2
2022-10-05T17:38:24.112Z,18.1
2022-10-05T17:43:23.258Z,18.1
2022-10-05T17:44:23.530Z,18.1
2022-10-05T17:46:23.596Z,18.1
2022-10-05T17:49:23.214Z,18.1
2022-10-05T17:50:23.447Z,18.1
2022-10-05T18:01:23.424Z,18.1
2022-10-05T18:02:23.315Z,18.1
2022-10-05T18:08:25.033Z,18
2022-10-05T18:13:23.673Z,18
2022-10-05T18:15:23.450Z,18
2022-10-05T18:18:23.844Z,18
2022-10-05T18:20:23.347Z,18
2022-10-05T18:21:23.317Z,18
2022-10-05T18:26:23.525Z,18
2022-10-05T18:32:23.551Z,18
2022-10-05T18:33:23.646Z,18
2022-10-05T18:35:23.559Z,18
2022-10-05T18:40:23.366Z,18
2022-10-05T18:45:23.651Z,18
2022-10-05T18:49:23.580Z,18
2022-10-05T18:56:23.450Z,18
2022-10-05T18:57:23.443Z,18
2022-10-05T18:58:23.737Z,18
2022-10-05T19:02:23.607Z,18
2022-10-05T19:05:46.219Z,18
2022-10-05T19:12:23.726Z,18
2022-10-05T19:17:23.205Z,18
2022-10-05T19:19:29.329Z,18
2022-10-05T19:20:23.437Z,18
2022-10-05T19:21:23.547Z,18
2022-10-05T19:24:23.256Z,18
2022-10-05T19:29:23.516Z,18
2022-10-05T19:31:23.679Z,18
2022-10-05T19:32:23.374Z,18
2022-10-05T19:36:23.636Z,18
2022-10-05T19:39:23.657Z,18.1
2022-10-05T19:42:23.448Z,18
2022-10-05T19:45:23.230Z,18
2022-10-05T19:46:23.761Z,18
2022-10-05T19:47:23.646Z,18
2022-10-05T19:54:23.258Z,18
2022-10-05T19:55:23.266Z,18
2022-10-05T19:57:23.650Z,18
2022-10-05T19:59:23.292Z,18
2022-10-05T20:03:23.375Z,18
2022-10-05T20:09:23.391Z,18
2022-10-05T20:16:23.633Z,18
2022-10-05T20:20:23.657Z,18
2022-10-05T20:21:23.317Z,18
2022-10-05T20:22:23.347Z,18
2022-10-05T20:24:23.275Z,18